createdAt,value
2019-02-21T00:00:54.702Z,17.87
2019-02-21T00:03:58.979Z,16.90
2019-02-21T00:07:03.341Z,17.00
2019-02-21T00:10:08.034Z,16.87
2019-02-21T00:13:12.327Z,18.37
2019-02-21T00:16:16.634Z,17.87
2019-02-21T00:19:20.935Z,18.57
2019-02-21T00:22:25.239Z,18.17
2019-02-21T00:25:30.465Z,16.93
2019-02-21T00:28:35.411Z,18.33
2019-02-21T00:31:40.217Z,18.50
2019-02-21T00:34:44.769Z,16.13
2019-02-21T00:37:49.057Z,17.10
2019-02-21T00:40:53.339Z,17.17
2019-02-21T00:43:57.837Z,16.80
2019-02-21T00:47:02.141Z,14.47
2019-02-21T00:50:06.697Z,16.17
2019-02-21T00:53:10.997Z,19.17
2019-02-21T00:56:15.315Z,18.13
2019-02-21T00:59:22.653Z,18.40
2019-02-21T01:02:26.936Z,17.83
2019-02-21T01:05:31.356Z,19.60
2019-02-21T01:08:35.684Z,19.47
2019-02-21T01:11:43.110Z,16.30
2019-02-21T01:14:47.403Z,19.47
2019-02-21T01:17:51.714Z,17.80
2019-02-21T01:20:56.004Z,18.00
2019-02-21T01:24:00.369Z,17.30
2019-02-21T01:27:04.695Z,18.70
2019-02-21T01:30:09.340Z,18.10
2019-02-21T01:33:13.644Z,17.90
2019-02-21T01:36:17.964Z,17.90
2019-02-21T01:39:24.320Z,18.70
2019-02-21T01:42:28.653Z,17.57
2019-02-21T01:45:32.948Z,17.37
2019-02-21T01:48:37.256Z,17.70
2019-02-21T01:51:44.269Z,12.93
2019-02-21T01:54:48.970Z,17.63
2019-02-21T01:57:53.378Z,16.13
2019-02-21T02:01:07.636Z,17.40
2019-02-21T02:04:04.004Z,17.90
2019-02-21T02:07:08.282Z,18.67
2019-02-21T02:10:12.930Z,16.37
2019-02-21T02:13:24.526Z,16.97
2019-02-21T02:16:23.300Z,15.97
2019-02-21T02:19:27.597Z,14.93
2019-02-21T02:22:31.916Z,13.70
2019-02-21T02:25:36.254Z,14.23
2019-02-21T02:28:41.067Z,15.57
2019-02-21T02:31:45.832Z,15.33
2019-02-21T02:34:50.246Z,13.27
2019-02-21T02:37:54.646Z,13.73
2019-02-21T02:40:58.911Z,12.07
2019-02-21T02:44:03.183Z,14.43
2019-02-21T02:47:07.474Z,14.37
2019-02-21T02:50:11.827Z,13.83
2019-02-21T02:53:16.135Z,9.50
2019-02-21T02:56:20.640Z,13.60
2019-02-21T02:59:24.955Z,14.03
2019-02-21T03:02:29.257Z,14.43
2019-02-21T03:05:33.548Z,15.43
2019-02-21T03:08:37.831Z,16.67
2019-02-21T03:11:42.216Z,15.97
2019-02-21T03:14:46.739Z,16.20
2019-02-21T03:17:51.021Z,16.00
2019-02-21T03:20:55.319Z,15.83
2019-02-21T03:23:59.597Z,16.47
2019-02-21T03:27:03.912Z,18.23
2019-02-21T03:30:12.086Z,17.00
2019-02-21T03:33:15.133Z,20.70
2019-02-21T03:36:19.486Z,19.60
2019-02-21T03:39:23.805Z,16.00
2019-02-21T03:42:28.093Z,16.57
2019-02-21T03:45:32.395Z,16.33
2019-02-21T03:48:36.659Z,17.13
2019-02-21T03:51:40.963Z,16.57
2019-02-21T03:54:45.249Z,15.77
2019-02-21T03:57:49.646Z,14.63
2019-02-21T04:00:53.935Z,15.37
2019-02-21T04:04:00.645Z,18.27
2019-02-21T04:07:05.256Z,16.97
2019-02-21T04:10:09.666Z,17.77
2019-02-21T04:13:15.304Z,16.00
2019-02-21T04:16:19.651Z,17.73
2019-02-21T04:19:24.035Z,17.73
2019-02-21T04:22:28.348Z,16.77
2019-02-21T04:25:32.619Z,17.83
2019-02-21T04:28:36.936Z,18.87
2019-02-21T04:31:44.212Z,20.27
2019-02-21T04:34:49.984Z,19.37
2019-02-21T04:37:54.301Z,18.47
2019-02-21T04:40:58.556Z,19.17
2019-02-21T04:44:04.040Z,18.30
2019-02-21T04:47:08.661Z,19.00
2019-02-21T04:50:12.936Z,17.97
2019-02-21T04:53:17.220Z,19.97
2019-02-21T04:56:21.504Z,21.23
2019-02-21T04:59:25.820Z,23.20
2019-02-21T05:02:30.231Z,20.53
2019-02-21T05:05:37.588Z,22.10
2019-02-21T05:08:42.024Z,21.07
2019-02-21T05:11:46.322Z,20.97
2019-02-21T05:14:50.636Z,21.00
2019-02-21T05:17:55.046Z,22.17
2019-02-21T05:20:59.553Z,19.17
2019-02-21T05:24:03.946Z,22.20
2019-02-21T05:27:21.462Z,20.40
2019-02-21T05:30:27.377Z,19.73
2019-02-21T05:33:52.709Z,22.83
2019-02-21T05:37:22.130Z,22.27
2019-02-21T05:40:44.085Z,21.30
2019-02-21T05:44:00.226Z,22.17
2019-02-21T05:47:35.669Z,20.13
2019-02-21T05:50:57.692Z,22.83
2019-02-21T05:54:23.396Z,21.77
2019-02-21T05:57:33.355Z,21.27
2019-02-21T06:00:56.409Z,21.17
2019-02-21T06:04:09.958Z,18.13
2019-02-21T06:07:22.036Z,17.30
2019-02-21T06:10:57.612Z,18.17
2019-02-21T06:14:13.639Z,20.37
2019-02-21T06:17:34.174Z,18.57
2019-02-21T06:21:06.130Z,16.90
2019-02-21T06:24:21.869Z,20.60
2019-02-21T06:27:45.082Z,21.57
2019-02-21T06:30:53.237Z,17.63
2019-02-21T06:33:57.601Z,21.20
2019-02-21T06:37:01.975Z,19.83
2019-02-21T06:40:06.474Z,20.80
2019-02-21T06:43:10.794Z,19.10
2019-02-21T06:46:15.099Z,19.77
2019-02-21T06:49:19.664Z,20.93
2019-02-21T06:52:24.118Z,20.50
2019-02-21T06:55:28.412Z,18.43
2019-02-21T06:58:32.710Z,18.37
2019-02-21T07:01:37.010Z,17.80
2019-02-21T07:04:41.297Z,19.13
2019-02-21T07:07:45.594Z,17.53
2019-02-21T07:10:49.969Z,18.67
2019-02-21T07:13:54.261Z,19.10
2019-02-21T07:16:58.653Z,18.27
2019-02-21T07:20:02.950Z,18.77
2019-02-21T07:23:11.331Z,20.00
2019-02-21T07:26:18.419Z,16.93
2019-02-21T07:29:22.808Z,18.00
2019-02-21T07:32:27.259Z,20.83
2019-02-21T07:35:31.855Z,18.10
2019-02-21T07:38:37.608Z,22.20
2019-02-21T07:41:41.889Z,22.50
2019-02-21T07:44:46.207Z,23.20
2019-02-21T07:47:50.490Z,21.60
2019-02-21T07:50:54.777Z,20.30
2019-02-21T07:53:59.104Z,21.17
2019-02-21T07:57:03.472Z,20.50
2019-02-21T08:00:09.218Z,18.53
2019-02-21T08:03:13.639Z,13.80
2019-02-21T08:06:19.979Z,15.27
2019-02-21T08:09:24.135Z,18.33
2019-02-21T08:12:28.445Z,18.60
2019-02-21T08:15:32.729Z,17.40
2019-02-21T08:18:37.175Z,19.33
2019-02-21T08:21:43.492Z,20.77
2019-02-21T08:24:47.693Z,18.47
2019-02-21T08:27:52.036Z,19.03
2019-02-21T08:30:58.098Z,21.53
2019-02-21T08:34:16.026Z,21.17
2019-02-21T08:37:20.343Z,21.33
2019-02-21T08:40:25.202Z,16.63
2019-02-21T08:43:29.616Z,18.90
2019-02-21T08:46:34.026Z,16.50
2019-02-21T08:49:38.507Z,17.30
2019-02-21T08:52:42.797Z,18.00
2019-02-21T08:55:47.093Z,14.47
2019-02-21T08:58:51.575Z,17.13
2019-02-21T09:01:55.955Z,17.67
2019-02-21T09:05:00.301Z,15.67
2019-02-21T09:08:04.928Z,17.17
2019-02-21T09:11:09.432Z,14.20
2019-02-21T09:14:13.871Z,14.90
2019-02-21T09:17:18.160Z,14.83
2019-02-21T09:20:22.490Z,13.70
2019-02-21T09:23:26.804Z,13.47
2019-02-21T09:26:31.123Z,11.53
2019-02-21T09:29:35.408Z,11.83
2019-02-21T09:32:41.989Z,10.83
2019-02-21T09:35:45.798Z,12.80
2019-02-21T09:38:50.403Z,12.40
2019-02-21T09:41:54.729Z,11.47
2019-02-21T09:44:59.075Z,11.83
2019-02-21T09:48:03.425Z,12.40
2019-02-21T09:51:13.317Z,11.53
2019-02-21T09:54:19.079Z,13.23
2019-02-21T09:57:23.536Z,12.93
2019-02-21T10:00:27.832Z,13.90
2019-02-21T10:03:32.139Z,13.47
2019-02-21T10:06:36.431Z,11.63
2019-02-21T10:09:40.732Z,10.97
2019-02-21T10:12:45.156Z,11.20
2019-02-21T10:15:51.623Z,13.37
2019-02-21T10:18:55.932Z,14.53
2019-02-21T10:22:00.360Z,14.40
2019-02-21T10:25:05.511Z,14.23
2019-02-21T10:28:09.841Z,13.53
2019-02-21T10:31:14.141Z,12.03
2019-02-21T10:34:18.432Z,13.20
2019-02-21T10:37:24.179Z,13.27
2019-02-21T10:40:30.207Z,12.97
2019-02-21T10:43:34.597Z,13.87
2019-02-21T10:46:38.991Z,15.53
2019-02-21T10:49:43.280Z,15.17
2019-02-21T10:52:47.561Z,15.70
2019-02-21T10:55:51.854Z,14.23
2019-02-21T10:58:56.164Z,12.97
2019-02-21T11:02:00.581Z,13.43
2019-02-21T11:05:07.047Z,12.47
2019-02-21T11:08:13.260Z,14.07
2019-02-21T11:11:17.659Z,10.30
2019-02-21T11:14:21.955Z,14.47
2019-02-21T11:17:26.256Z,14.10
2019-02-21T11:20:30.767Z,13.43
2019-02-21T11:23:35.197Z,13.97
2019-02-21T11:26:39.809Z,13.03
2019-02-21T11:29:44.212Z,13.07
2019-02-21T11:32:48.621Z,12.87
2019-02-21T11:35:52.899Z,14.07
2019-02-21T11:38:57.305Z,12.33
2019-02-21T11:42:01.698Z,11.00
2019-02-21T11:45:06.932Z,15.53
2019-02-21T11:48:11.547Z,14.57
2019-02-21T11:51:15.827Z,14.67
2019-02-21T11:54:26.954Z,16.40
2019-02-21T11:57:26.126Z,14.50
2019-02-21T12:00:30.751Z,17.10
2019-02-21T12:03:35.134Z,15.37
2019-02-21T12:06:39.447Z,14.93
2019-02-21T12:09:43.744Z,16.70
2019-02-21T12:12:48.025Z,14.53
2019-02-21T12:15:52.888Z,14.50
2019-02-21T12:18:57.286Z,16.63
2019-02-21T12:22:01.692Z,15.03
2019-02-21T12:25:07.227Z,15.90
2019-02-21T12:28:11.557Z,16.57
2019-02-21T12:31:15.862Z,16.67
2019-02-21T12:34:20.284Z,15.10
2019-02-21T12:37:24.581Z,17.37
2019-02-21T12:40:29.003Z,15.27
2019-02-21T12:43:33.387Z,16.87
2019-02-21T12:46:38.004Z,17.27
2019-02-21T12:49:42.506Z,16.73
2019-02-21T12:52:46.787Z,17.33
2019-02-21T12:55:51.089Z,16.77
2019-02-21T12:58:55.499Z,18.37
2019-02-21T13:01:59.826Z,18.27
2019-02-21T13:05:04.179Z,18.27
2019-02-21T13:08:08.479Z,18.13
2019-02-21T13:11:12.774Z,16.77
2019-02-21T13:14:17.167Z,17.07
2019-02-21T13:17:21.513Z,17.60
2019-02-21T13:20:25.934Z,17.77
2019-02-21T13:23:30.280Z,15.43
2019-02-21T13:26:34.598Z,17.33
2019-02-21T13:29:38.897Z,17.73
2019-02-21T13:32:44.401Z,18.57
2019-02-21T13:35:52.801Z,16.10
2019-02-21T13:38:54.779Z,16.27
2019-02-21T13:41:59.106Z,17.17
2019-02-21T13:45:03.414Z,17.87
2019-02-21T13:48:07.718Z,18.70
2019-02-21T13:51:12.034Z,15.93
2019-02-21T13:54:16.365Z,18.90
2019-02-21T13:57:20.771Z,19.53
2019-02-21T14:00:25.074Z,17.00
2019-02-21T14:03:29.625Z,17.87
2019-02-21T14:06:33.975Z,19.27
2019-02-21T14:09:38.295Z,18.40
2019-02-21T14:12:43.791Z,18.07
2019-02-21T14:15:48.075Z,17.37
2019-02-21T14:18:52.510Z,17.40
2019-02-21T14:21:56.817Z,16.63
2019-02-21T14:25:01.125Z,16.63
2019-02-21T14:28:06.615Z,16.00
2019-02-21T14:31:11.024Z,18.80
2019-02-21T14:34:16.936Z,17.43
2019-02-21T14:37:21.276Z,16.63
2019-02-21T14:40:25.581Z,18.03
2019-02-21T14:43:29.924Z,19.13
2019-02-21T14:46:34.264Z,17.60
2019-02-21T14:49:38.578Z,17.53
2019-02-21T14:52:42.905Z,18.60
2019-02-21T14:55:47.202Z,18.17
2019-02-21T14:58:51.575Z,16.13
2019-02-21T15:01:56.002Z,18.20
2019-02-21T15:05:00.424Z,17.60
2019-02-21T15:08:04.824Z,16.70
2019-02-21T15:11:09.349Z,18.03
2019-02-21T15:14:13.773Z,16.53
2019-02-21T15:17:18.647Z,16.53
2019-02-21T15:20:23.172Z,16.43
2019-02-21T15:23:27.576Z,15.10
2019-02-21T15:26:32.098Z,16.33
2019-02-21T15:29:39.250Z,13.40
2019-02-21T15:32:44.938Z,14.80
2019-02-21T15:35:49.381Z,15.23
2019-02-21T15:38:53.683Z,15.73
2019-02-21T15:41:58.223Z,15.37
2019-02-21T15:45:02.657Z,15.80
2019-02-21T15:48:07.066Z,16.80
2019-02-21T15:51:14.793Z,15.67
2019-02-21T15:54:19.291Z,15.80
2019-02-21T15:57:23.771Z,19.43
2019-02-21T16:00:28.399Z,16.80
2019-02-21T16:03:32.707Z,18.13
2019-02-21T16:06:38.070Z,17.73
2019-02-21T16:09:43.098Z,18.33
2019-02-21T16:12:48.013Z,16.87
2019-02-21T16:15:52.456Z,19.13
2019-02-21T16:18:58.798Z,19.27
2019-02-21T16:22:03.063Z,22.53
2019-02-21T16:25:09.230Z,19.27
2019-02-21T16:28:13.630Z,20.13
2019-02-21T16:31:17.952Z,22.37
2019-02-21T16:34:22.291Z,20.20
2019-02-21T16:37:28.019Z,19.27
2019-02-21T16:40:32.421Z,19.63
2019-02-21T16:43:36.722Z,20.83
2019-02-21T16:46:41.085Z,19.60
2019-02-21T16:49:45.366Z,19.83
2019-02-21T16:52:54.625Z,20.63
2019-02-21T16:56:05.039Z,20.20
2019-02-21T16:59:09.528Z,19.73
2019-02-21T17:02:15.631Z,20.10
2019-02-21T17:05:20.144Z,18.63
2019-02-21T17:08:24.539Z,19.47
2019-02-21T17:11:28.889Z,20.33
2019-02-21T17:14:33.190Z,19.23
2019-02-21T17:17:37.508Z,19.17
2019-02-21T17:20:41.992Z,19.40
2019-02-21T17:23:46.308Z,20.27
2019-02-21T17:26:50.730Z,20.13
2019-02-21T17:29:55.148Z,18.53
2019-02-21T17:32:59.586Z,16.93
2019-02-21T17:36:03.941Z,19.80
2019-02-21T17:39:08.973Z,18.90
2019-02-21T17:42:13.370Z,19.40
2019-02-21T17:45:17.667Z,19.10
2019-02-21T17:48:22.629Z,19.70
2019-02-21T17:51:26.996Z,17.67
2019-02-21T17:54:33.625Z,16.47
2019-02-21T17:57:37.957Z,17.23
2019-02-21T18:00:43.545Z,13.77
2019-02-21T18:03:48.345Z,13.73
2019-02-21T18:06:52.874Z,17.10
2019-02-21T18:09:57.510Z,15.93
2019-02-21T18:13:01.978Z,13.10
2019-02-21T18:16:06.300Z,15.03
2019-02-21T18:19:10.929Z,15.20
2019-02-21T18:22:16.707Z,15.53
2019-02-21T18:25:24.830Z,16.53
2019-02-21T18:28:29.271Z,15.57
2019-02-21T18:31:33.587Z,14.73
2019-02-21T18:34:37.896Z,12.13
2019-02-21T18:37:47.427Z,13.60
2019-02-21T18:40:48.280Z,12.30
2019-02-21T18:43:52.694Z,12.40
2019-02-21T18:46:57.016Z,11.17
2019-02-21T18:50:01.349Z,10.63
2019-02-21T18:53:06.213Z,10.70
2019-02-21T18:56:11.040Z,10.00
2019-02-21T18:59:15.374Z,9.37
2019-02-21T19:02:19.961Z,7.70
2019-02-21T19:05:35.025Z,8.43
2019-02-21T19:08:30.729Z,9.47
2019-02-21T19:11:35.130Z,9.00
2019-02-21T19:14:39.656Z,9.03
2019-02-21T19:17:45.511Z,8.97
2019-02-21T19:20:50.065Z,8.70
2019-02-21T19:23:54.506Z,9.10
2019-02-21T19:26:58.969Z,8.33
2019-02-21T19:30:03.334Z,8.83
2019-02-21T19:33:07.888Z,8.43
2019-02-21T19:36:12.793Z,9.77
2019-02-21T19:39:17.224Z,9.17
2019-02-21T19:42:21.597Z,9.13
2019-02-21T19:45:26.058Z,8.87
2019-02-21T19:48:30.723Z,10.47
2019-02-21T19:51:35.131Z,10.23
2019-02-21T19:54:39.925Z,10.67
2019-02-21T19:57:44.587Z,11.60
2019-02-21T20:00:49.049Z,11.70
2019-02-21T20:03:53.447Z,10.17
2019-02-21T20:06:58.146Z,10.50
2019-02-21T20:10:02.676Z,10.03
2019-02-21T20:13:11.467Z,10.40
2019-02-21T20:16:15.891Z,11.03
2019-02-21T20:19:20.533Z,9.93
2019-02-21T20:22:25.222Z,10.30
2019-02-21T20:25:29.801Z,10.67
2019-02-21T20:28:34.268Z,11.03
2019-02-21T20:31:38.801Z,10.87
2019-02-21T20:34:43.318Z,11.70
2019-02-21T20:37:47.953Z,11.73
2019-02-21T20:40:52.840Z,11.40
2019-02-21T20:43:57.388Z,11.17
2019-02-21T20:47:01.946Z,12.40
2019-02-21T20:50:06.999Z,11.83
2019-02-21T20:53:13.382Z,11.20
2019-02-21T20:56:17.940Z,11.73
2019-02-21T20:59:22.353Z,11.27
2019-02-21T21:02:28.045Z,12.37
2019-02-21T21:05:32.372Z,11.80
2019-02-21T21:08:42.990Z,12.53
2019-02-21T21:11:42.810Z,12.43
2019-02-21T21:14:47.265Z,12.50
2019-02-21T21:17:51.551Z,11.83
2019-02-21T21:20:56.037Z,12.93
2019-02-21T21:24:00.415Z,12.10
2019-02-21T21:27:04.749Z,13.10
2019-02-21T21:30:11.009Z,11.80
2019-02-21T21:33:15.424Z,12.33
2019-02-21T21:36:19.749Z,13.10
2019-02-21T21:39:24.173Z,13.33
2019-02-21T21:42:28.519Z,12.77
2019-02-21T21:45:32.923Z,14.07
2019-02-21T21:48:37.230Z,12.57
2019-02-21T21:51:41.660Z,12.73
2019-02-21T21:54:46.078Z,13.10
2019-02-21T21:57:50.378Z,12.70
2019-02-21T22:00:54.680Z,13.13
2019-02-21T22:03:59.025Z,10.90
2019-02-21T22:07:03.344Z,11.77
2019-02-21T22:10:09.230Z,12.60
2019-02-21T22:13:13.570Z,11.43
2019-02-21T22:16:17.946Z,12.60
2019-02-21T22:19:22.251Z,10.67
2019-02-21T22:22:27.498Z,11.77
2019-02-21T22:25:31.817Z,11.13
2019-02-21T22:28:36.123Z,11.20
2019-02-21T22:31:40.603Z,11.57
2019-02-21T22:34:45.026Z,11.07
2019-02-21T22:37:49.467Z,11.73
2019-02-21T22:40:53.862Z,10.43
2019-02-21T22:43:58.194Z,11.23
2019-02-21T22:47:05.337Z,12.63
2019-02-21T22:50:11.974Z,11.63
2019-02-21T22:53:16.282Z,11.40
2019-02-21T22:56:20.627Z,11.03
2019-02-21T22:59:26.387Z,11.33
2019-02-21T23:02:33.070Z,12.93
2019-02-21T23:05:56.391Z,11.60
2019-02-21T23:09:00.835Z,11.27
2019-02-21T23:12:07.430Z,10.93
2019-02-21T23:15:13.032Z,10.83
2019-02-21T23:18:17.470Z,10.87
2019-02-21T23:21:21.820Z,11.07
2019-02-21T23:24:26.128Z,10.60
2019-02-21T23:27:30.578Z,11.90
2019-02-21T23:30:34.873Z,10.37
2019-02-21T23:33:43.924Z,10.50
2019-02-21T23:36:48.256Z,9.87
2019-02-21T23:39:52.591Z,11.07
2019-02-21T23:42:56.915Z,10.00
2019-02-21T23:46:01.273Z,9.37
2019-02-21T23:49:05.747Z,10.67
2019-02-21T23:52:10.121Z,9.87
2019-02-21T23:55:14.537Z,10.43
2019-02-21T23:58:20.029Z,9.93
